sensor_id;sensor_type;location;lat;lon;timestamp;pressure;altitude;pressure_sealevel;temperature;humidity
13478;BME280;12598;62.382;17.344;2023-04-07T00:00:15;102575.44;;;18.08;24.82
13478;BME280;12598;62.382;17.344;2023-04-07T00:01:17;102577.47;;;18.04;25.02
13478;BME280;12598;62.382;17.344;2023-04-07T00:02:19;102578.13;;;18.08;24.92
13478;BME280;12598;62.382;17.344;2023-04-07T00:03:21;102564.81;;;18.06;24.67
13478;BME280;12598;62.382;17.344;2023-04-07T00:04:24;102567.41;;;18.08;25.07
13478;BME280;12598;62.382;17.344;2023-04-07T00:05:26;102572.84;;;18.06;24.61
13478;BME280;12598;62.382;17.344;2023-04-07T00:06:28;102572.78;;;18.08;25.17
13478;BME280;12598;62.382;17.344;2023-04-07T00:07:30;102560.84;;;17.99;25.14
13478;BME280;12598;62.382;17.344;2023-04-07T00:08:35;102569.25;;;18.07;24.92
13478;BME280;12598;62.382;17.344;2023-04-07T00:09:37;102561.53;;;18.03;24.79
13478;BME280;12598;62.382;17.344;2023-04-07T00:10:40;102560.00;;;17.99;24.90
13478;BME280;12598;62.382;17.344;2023-04-07T00:11:42;102580.06;;;18.06;25.26
13478;BME280;12598;62.382;17.344;2023-04-07T00:12:43;102570.31;;;18.05;24.91
13478;BME280;12598;62.382;17.344;2023-04-07T00:13:45;102572.97;;;18.05;25.10
13478;BME280;12598;62.382;17.344;2023-04-07T00:14:47;102564.94;;;18.05;24.95
13478;BME280;12598;62.382;17.344;2023-04-07T00:15:49;102560.00;;;17.99;25.03
13478;BME280;12598;62.382;17.344;2023-04-07T00:16:51;102581.09;;;18.03;25.16
13478;BME280;12598;62.382;17.344;2023-04-07T00:17:53;102555.28;;;17.90;25.10
13478;BME280;12598;62.382;17.344;2023-04-07T00:18:55;102574.91;;;18.03;25.30
13478;BME280;12598;62.382;17.344;2023-04-07T00:19:57;102576.72;;;18.02;24.73
13478;BME280;12598;62.382;17.344;2023-04-07T00:20:58;102575.88;;;18.02;24.82
13478;BME280;12598;62.382;17.344;2023-04-07T00:22:00;102581.22;;;18.02;24.74
13478;BME280;12598;62.382;17.344;2023-04-07T00:23:02;102575.88;;;18.02;24.89
13478;BME280;12598;62.382;17.344;2023-04-07T00:24:04;102580.34;;;18.01;25.11
13478;BME280;12598;62.382;17.344;2023-04-07T00:25:06;102574.16;;;18.01;24.96
13478;BME280;12598;62.382;17.344;2023-04-07T00:26:09;102581.22;;;18.02;24.87
13478;BME280;12598;62.382;17.344;2023-04-07T00:27:11;102581.22;;;18.02;24.77
13478;BME280;12598;62.382;17.344;2023-04-07T00:28:13;102571.47;;;18.01;24.92
13478;BME280;12598;62.382;17.344;2023-04-07T00:29:15;102565.56;;;17.96;25.21
13478;BME280;12598;62.382;17.344;2023-04-07T00:30:17;102580.34;;;18.01;25.05
13478;BME280;12598;62.382;17.344;2023-04-07T00:31:18;102584.88;;;18.01;24.87
13478;BME280;12598;62.382;17.344;2023-04-07T00:32:21;102571.97;;;17.93;24.90
13478;BME280;12598;62.382;17.344;2023-04-07T00:33:23;102577.03;;;17.98;24.88
13478;BME280;12598;62.382;17.344;2023-04-07T00:34:25;102577.78;;;18.00;24.82
13478;BME280;12598;62.382;17.344;2023-04-07T00:35:27;102570.72;;;17.99;25.03
13478;BME280;12598;62.382;17.344;2023-04-07T00:36:29;102566.63;;;17.93;24.94
13478;BME280;12598;62.382;17.344;2023-04-07T00:37:32;102570.28;;;17.92;24.76
13478;BME280;12598;62.382;17.344;2023-04-07T00:38:34;102585.91;;;17.98;24.85
13478;BME280;12598;62.382;17.344;2023-04-07T00:39:38;102584.09;;;17.99;24.79
13478;BME280;12598;62.382;17.344;2023-04-07T00:40:40;102590.44;;;17.98;25.12
13478;BME280;12598;62.382;17.344;2023-04-07T00:41:42;102584.19;;;17.97;24.91
13478;BME280;12598;62.382;17.344;2023-04-07T00:42:44;102583.34;;;17.97;25.08
13478;BME280;12598;62.382;17.344;2023-04-07T00:43:46;102580.97;;;17.92;24.90
13478;BME280;12598;62.382;17.344;2023-04-07T00:44:48;102588.72;;;17.97;25.16
13478;BME280;12598;62.382;17.344;2023-04-07T00:45:52;102586.03;;;17.97;24.89
13478;BME280;12598;62.382;17.344;2023-04-07T00:46:54;102589.56;;;17.97;25.08
13478;BME280;12598;62.382;17.344;2023-04-07T00:47:56;102578.41;;;17.91;24.81
13478;BME280;12598;62.382;17.344;2023-04-07T00:48:59;102582.47;;;17.96;25.16
13478;BME280;12598;62.382;17.344;2023-04-07T00:50:05;102562.75;;;17.85;25.13
13478;BME280;12598;62.382;17.344;2023-04-07T00:51:07;102588.72;;;17.97;25.08
13478;BME280;12598;62.382;17.344;2023-04-07T00:52:09;102570.78;;;17.85;25.29
13478;BME280;12598;62.382;17.344;2023-04-07T00:53:14;102563.63;;;17.85;24.83
13478;BME280;12598;62.382;17.344;2023-04-07T00:54:17;102583.44;;;17.95;24.80
13478;BME280;12598;62.382;17.344;2023-04-07T00:55:19;102581.63;;;17.96;25.08
13478;BME280;12598;62.382;17.344;2023-04-07T00:56:21;102555.03;;;17.81;24.83
13478;BME280;12598;62.382;17.344;2023-04-07T00:57:23;102577.47;;;17.92;24.88
13478;BME280;12598;62.382;17.344;2023-04-07T00:58:26;102584.41;;;17.94;24.98
13478;BME280;12598;62.382;17.344;2023-04-07T00:59:28;102572.31;;;17.89;24.90
13478;BME280;12598;62.382;17.344;2023-04-07T01:00:35;102585.38;;;17.93;25.11
13478;BME280;12598;62.382;17.344;2023-04-07T01:02:01;102579.94;;;17.95;24.76
13478;BME280;12598;62.382;17.344;2023-04-07T01:03:08;102564.81;;;17.94;25.10
13478;BME280;12598;62.382;17.344;2023-04-07T01:05:53;102575.66;;;18.05;24.60
13478;BME280;12598;62.382;17.344;2023-04-07T01:07:03;102574.91;;;18.03;25.03
13478;BME280;12598;62.382;17.344;2023-04-07T01:09:19;102579.72;;;17.98;24.61
13478;BME280;12598;62.382;17.344;2023-04-07T01:12:23;102573.72;;;18.07;24.93
13478;BME280;12598;62.382;17.344;2023-04-07T01:13:35;102568.59;;;18.04;24.56
13478;BME280;12598;62.382;17.344;2023-04-07T01:14:54;102574.91;;;18.03;24.95
13478;BME280;12598;62.382;17.344;2023-04-07T01:16:22;102574.56;;;17.95;25.12
13478;BME280;12598;62.382;17.344;2023-04-07T01:17:26;102584.00;;;18.00;24.65
13478;BME280;12598;62.382;17.344;2023-04-07T01:18:34;102575.41;;;17.95;25.20
13478;BME280;12598;62.382;17.344;2023-04-07T01:19:46;102579.94;;;17.95;24.73
13478;BME280;12598;62.382;17.344;2023-04-07T01:20:50;102574.88;;;17.90;24.96
13478;BME280;12598;62.382;17.344;2023-04-07T01:21:55;102580.13;;;17.92;25.02
13478;BME280;12598;62.382;17.344;2023-04-07T01:23:04;102578.41;;;17.91;25.13
13478;BME280;12598;62.382;17.344;2023-04-07T01:27:13;102577.03;;;17.98;25.01
13478;BME280;12598;62.382;17.344;2023-04-07T01:28:43;102568.56;;;17.91;24.87
13478;BME280;12598;62.382;17.344;2023-04-07T01:29:48;102570.06;;;17.95;24.74
13478;BME280;12598;62.382;17.344;2023-04-07T01:30:53;102589.75;;;17.94;24.82
13478;BME280;12598;62.382;17.344;2023-04-07T01:31:59;102589.13;;;17.91;24.86
13478;BME280;12598;62.382;17.344;2023-04-07T01:33:03;102598.13;;;17.90;25.21
13478;BME280;12598;62.382;17.344;2023-04-07T01:34:09;102594.69;;;17.88;25.16
13478;BME280;12598;62.382;17.344;2023-04-07T01:35:12;102586.19;;;17.82;25.08
13478;BME280;12598;62.382;17.344;2023-04-07T01:36:15;102587.63;;;17.87;24.89
13478;BME280;12598;62.382;17.344;2023-04-07T01:37:17;102573.03;;;17.79;25.21
13478;BME280;12598;62.382;17.344;2023-04-07T01:38:20;102589.50;;;17.85;25.00
13478;BME280;12598;62.382;17.344;2023-04-07T01:39:22;102589.50;;;17.85;25.09
13478;BME280;12598;62.382;17.344;2023-04-07T01:40:26;102570.44;;;17.77;25.11
13478;BME280;12598;62.382;17.344;2023-04-07T01:41:30;102573.44;;;17.85;25.14
13478;BME280;12598;62.382;17.344;2023-04-07T01:42:34;102571.84;;;17.83;25.05
13478;BME280;12598;62.382;17.344;2023-04-07T01:43:39;102575.28;;;17.84;24.90
13478;BME280;12598;62.382;17.344;2023-04-07T01:44:43;102570.78;;;17.85;24.82
13478;BME280;12598;62.382;17.344;2023-04-07T01:45:46;102569.06;;;17.84;25.09
13478;BME280;12598;62.382;17.344;2023-04-07T01:46:48;102571.72;;;17.84;24.84
13478;BME280;12598;62.382;17.344;2023-04-07T01:47:54;102568.09;;;17.85;24.80
13478;BME280;12598;62.382;17.344;2023-04-07T01:48:57;102556.41;;;17.74;25.04
13478;BME280;12598;62.382;17.344;2023-04-07T01:50:00;102565.00;;;17.79;25.04
13478;BME280;12598;62.382;17.344;2023-04-07T01:51:06;102569.06;;;17.84;24.80
13478;BME280;12598;62.382;17.344;2023-04-07T01:52:09;102566.38;;;17.84;25.07
13478;BME280;12598;62.382;17.344;2023-04-07T01:53:13;102575.38;;;17.83;25.03
13478;BME280;12598;62.382;17.344;2023-04-07T01:54:17;102570.03;;;17.83;24.83
13478;BME280;12598;62.382;17.344;2023-04-07T01:55:20;102546.88;;;17.70;25.04
13478;BME280;12598;62.382;17.344;2023-04-07T01:56:33;102564.38;;;17.87;24.74
13478;BME280;12598;62.382;17.344;2023-04-07T01:57:38;102560.94;;;17.85;24.84
13478;BME280;12598;62.382;17.344;2023-04-07T01:58:46;102569.94;;;17.84;24.77
13478;BME280;12598;62.382;17.344;2023-04-07T01:59:52;102559.94;;;17.74;24.57
13478;BME280;12598;62.382;17.344;2023-04-07T02:00:57;102574.31;;;17.85;24.90
13478;BME280;12598;62.382;17.344;2023-04-07T02:01:59;102570.03;;;17.83;24.60
13478;BME280;12598;62.382;17.344;2023-04-07T02:03:07;102554.59;;;17.74;24.72
13478;BME280;12598;62.382;17.344;2023-04-07T02:05:23;102570.91;;;17.83;24.82
13478;BME280;12598;62.382;17.344;2023-04-07T02:06:31;102572.69;;;17.83;24.63
13478;BME280;12598;62.382;17.344;2023-04-07T02:08:03;102574.13;;;17.88;24.86
13478;BME280;12598;62.382;17.344;2023-04-07T02:09:10;102565.34;;;17.86;24.75
13478;BME280;12598;62.382;17.344;2023-04-07T02:10:14;102575.94;;;17.88;24.90
13478;BME280;12598;62.382;17.344;2023-04-07T02:11:19;102582.44;;;17.84;24.57
13478;BME280;12598;62.382;17.344;2023-04-07T02:12:27;102577.09;;;17.84;24.77
13478;BME280;12598;62.382;17.344;2023-04-07T02:13:41;102581.59;;;17.83;24.77
13478;BME280;12598;62.382;17.344;2023-04-07T02:14:46;102579.75;;;17.84;24.58
13478;BME280;12598;62.382;17.344;2023-04-07T02:15:50;102565.28;;;17.74;24.72
13478;BME280;12598;62.382;17.344;2023-04-07T02:16:55;102574.72;;;17.80;24.45
13478;BME280;12598;62.382;17.344;2023-04-07T02:17:59;102581.88;;;17.79;24.53
13478;BME280;12598;62.382;17.344;2023-04-07T02:19:02;102564.75;;;17.69;24.81
13478;BME280;12598;62.382;17.344;2023-04-07T02:20:06;102581.13;;;17.77;24.61
13478;BME280;12598;62.382;17.344;2023-04-07T02:21:12;102577.50;;;17.78;24.85
13478;BME280;12598;62.382;17.344;2023-04-07T02:22:18;102580.16;;;17.78;24.76
13478;BME280;12598;62.382;17.344;2023-04-07T02:23:21;102570.00;;;17.71;24.52
13478;BME280;12598;62.382;17.344;2023-04-07T02:24:23;102583.81;;;17.77;24.73
13478;BME280;12598;62.382;17.344;2023-04-07T02:25:27;102580.38;;;17.75;24.76
13478;BME280;12598;62.382;17.344;2023-04-07T02:26:33;102590.13;;;17.76;24.55
13478;BME280;12598;62.382;17.344;2023-04-07T02:27:36;102568.28;;;17.70;24.88
13478;BME280;12598;62.382;17.344;2023-04-07T02:28:37;102585.72;;;17.75;24.89
13478;BME280;12598;62.382;17.344;2023-04-07T02:29:39;102582.09;;;17.76;24.91
13478;BME280;12598;62.382;17.344;2023-04-07T02:30:41;102581.34;;;17.74;24.62
13478;BME280;12598;62.382;17.344;2023-04-07T02:31:43;102586.69;;;17.74;24.71
13478;BME280;12598;62.382;17.344;2023-04-07T02:32:45;102586.69;;;17.74;24.63
13478;BME280;12598;62.382;17.344;2023-04-07T02:33:48;102567.81;;;17.63;24.59
13478;BME280;12598;62.382;17.344;2023-04-07T02:34:49;102588.53;;;17.74;24.69
13478;BME280;12598;62.382;17.344;2023-04-07T02:35:51;102564.47;;;17.60;24.54
13478;BME280;12598;62.382;17.344;2023-04-07T02:36:54;102588.53;;;17.74;24.57
13478;BME280;12598;62.382;17.344;2023-04-07T02:37:56;102583.25;;;17.72;25.02
13478;BME280;12598;62.382;17.344;2023-04-07T02:38:58;102582.41;;;17.72;24.89
13478;BME280;12598;62.382;17.344;2023-04-07T02:40:00;102583.25;;;17.72;24.89
13478;BME280;12598;62.382;17.344;2023-04-07T02:41:02;102543.13;;;17.46;24.63
13478;BME280;12598;62.382;17.344;2023-04-07T02:42:04;102590.53;;;17.70;24.69
13478;BME280;12598;62.382;17.344;2023-04-07T02:43:06;102576.59;;;17.65;24.93
13478;BME280;12598;62.382;17.344;2023-04-07T02:44:08;102582.50;;;17.70;24.81
13478;BME280;12598;62.382;17.344;2023-04-07T02:45:10;102585.31;;;17.69;24.82
13478;BME280;12598;62.382;17.344;2023-04-07T02:46:12;102584.34;;;17.70;24.54
13478;BME280;12598;62.382;17.344;2023-04-07T02:47:16;102579.00;;;17.70;24.56
13478;BME280;12598;62.382;17.344;2023-04-07T02:48:18;102578.13;;;17.69;24.80
13478;BME280;12598;62.382;17.344;2023-04-07T02:49:20;102578.31;;;17.66;24.92
13478;BME280;12598;62.382;17.344;2023-04-07T02:50:22;102583.47;;;17.69;24.66
13478;BME280;12598;62.382;17.344;2023-04-07T02:51:26;102580.78;;;17.69;24.46
13478;BME280;12598;62.382;17.344;2023-04-07T02:52:28;102579.06;;;17.68;24.76
13478;BME280;12598;62.382;17.344;2023-04-07T02:53:30;102587.09;;;17.68;24.58
13478;BME280;12598;62.382;17.344;2023-04-07T02:54:32;102588.94;;;17.68;24.54
13478;BME280;12598;62.382;17.344;2023-04-07T02:55:34;102583.66;;;17.66;24.59
13478;BME280;12598;62.382;17.344;2023-04-07T02:56:36;102588.19;;;17.66;24.52
13478;BME280;12598;62.382;17.344;2023-04-07T02:57:38;102589.03;;;17.66;24.48
13478;BME280;12598;62.382;17.344;2023-04-07T02:58:45;102584.53;;;17.67;24.66
13478;BME280;12598;62.382;17.344;2023-04-07T02:59:47;102573.59;;;17.57;24.74
13478;BME280;12598;62.382;17.344;2023-04-07T03:00:49;102582.91;;;17.64;24.83
13478;BME280;12598;62.382;17.344;2023-04-07T03:01:56;102581.00;;;17.66;24.57
13478;BME280;12598;62.382;17.344;2023-04-07T03:02:59;102587.31;;;17.65;24.83
13478;BME280;12598;62.382;17.344;2023-04-07T03:04:05;102573.38;;;17.60;24.40
13478;BME280;12598;62.382;17.344;2023-04-07T03:05:07;102582.03;;;17.64;24.75
13478;BME280;12598;62.382;17.344;2023-04-07T03:06:09;102573.38;;;17.60;24.67
13478;BME280;12598;62.382;17.344;2023-04-07T03:07:21;102572.97;;;17.66;24.66
13478;BME280;12598;62.382;17.344;2023-04-07T03:08:26;102581.00;;;17.66;24.51
13478;BME280;12598;62.382;17.344;2023-04-07T03:09:29;102576.59;;;17.65;24.68
13478;BME280;12598;62.382;17.344;2023-04-07T03:10:31;102572.22;;;17.64;24.72
13478;BME280;12598;62.382;17.344;2023-04-07T03:11:33;102573.19;;;17.63;24.64
13478;BME280;12598;62.382;17.344;2023-04-07T03:12:35;102571.47;;;17.62;24.42
13478;BME280;12598;62.382;17.344;2023-04-07T03:13:37;102573.25;;;17.62;24.72
13478;BME280;12598;62.382;17.344;2023-04-07T03:14:39;102582.16;;;17.62;24.78
13478;BME280;12598;62.382;17.344;2023-04-07T03:15:41;102577.97;;;17.58;24.60
13478;BME280;12598;62.382;17.344;2023-04-07T03:16:44;102578.72;;;17.60;24.74
13478;BME280;12598;62.382;17.344;2023-04-07T03:17:47;102581.41;;;17.60;24.60
13478;BME280;12598;62.382;17.344;2023-04-07T03:18:50;102573.78;;;17.54;24.61
13478;BME280;12598;62.382;17.344;2023-04-07T03:19:52;102586.00;;;17.58;24.25
13478;BME280;12598;62.382;17.344;2023-04-07T03:20:54;102584.47;;;17.54;24.42
13478;BME280;12598;62.382;17.344;2023-04-07T03:21:56;102587.72;;;17.59;24.51
13478;BME280;12598;62.382;17.344;2023-04-07T03:22:58;102569.59;;;17.50;24.44
13478;BME280;12598;62.382;17.344;2023-04-07T03:24:02;102582.38;;;17.59;24.87
13478;BME280;12598;62.382;17.344;2023-04-07T03:25:04;102580.66;;;17.58;24.45
13478;BME280;12598;62.382;17.344;2023-04-07T03:26:06;102586.00;;;17.58;24.61
13478;BME280;12598;62.382;17.344;2023-04-07T03:27:10;102582.44;;;17.58;24.68
13478;BME280;12598;62.382;17.344;2023-04-07T03:28:17;102586.75;;;17.60;24.61
13478;BME280;12598;62.382;17.344;2023-04-07T03:29:19;102580.72;;;17.57;24.25
13478;BME280;12598;62.382;17.344;2023-04-07T03:30:21;102578.25;;;17.54;24.36
13478;BME280;12598;62.382;17.344;2023-04-07T03:31:23;102589.63;;;17.57;24.56
13478;BME280;12598;62.382;17.344;2023-04-07T03:32:27;102585.13;;;17.58;24.38
13478;BME280;12598;62.382;17.344;2023-04-07T03:33:30;102581.59;;;17.57;24.55
13478;BME280;12598;62.382;17.344;2023-04-07T03:34:32;102550.69;;;17.39;24.32
13478;BME280;12598;62.382;17.344;2023-04-07T03:35:34;102583.41;;;17.57;24.52
13478;BME280;12598;62.382;17.344;2023-04-07T03:36:36;102587.91;;;17.56;24.49
13478;BME280;12598;62.382;17.344;2023-04-07T03:37:39;102592.38;;;17.56;24.22
13478;BME280;12598;62.382;17.344;2023-04-07T03:38:47;102586.19;;;17.55;24.39
13478;BME280;12598;62.382;17.344;2023-04-07T03:39:51;102594.97;;;17.57;24.40
13478;BME280;12598;62.382;17.344;2023-04-07T03:40:59;102585.44;;;17.53;24.20
13478;BME280;12598;62.382;17.344;2023-04-07T03:42:02;102588.75;;;17.57;24.37
13478;BME280;12598;62.382;17.344;2023-04-07T03:43:06;102591.56;;;17.55;24.26
13478;BME280;12598;62.382;17.344;2023-04-07T03:44:14;102594.97;;;17.57;24.54
13478;BME280;12598;62.382;17.344;2023-04-07T03:45:16;102596.03;;;17.55;24.41
13478;BME280;12598;62.382;17.344;2023-04-07T03:46:23;102595.06;;;17.56;24.16
13478;BME280;12598;62.382;17.344;2023-04-07T03:47:27;102596.91;;;17.55;24.47
13478;BME280;12598;62.382;17.344;2023-04-07T03:48:34;102595.06;;;17.56;24.13
13478;BME280;12598;62.382;17.344;2023-04-07T03:49:44;102595.94;;;17.56;24.30
13478;BME280;12598;62.382;17.344;2023-04-07T03:50:46;102593.25;;;17.56;24.09
13478;BME280;12598;62.382;17.344;2023-04-07T03:51:51;102599.56;;;17.55;24.42
13478;BME280;12598;62.382;17.344;2023-04-07T03:52:53;102593.47;;;17.53;24.34
13478;BME280;12598;62.382;17.344;2023-04-07T03:53:58;102588.13;;;17.53;24.24
13478;BME280;12598;62.382;17.344;2023-04-07T03:55:06;102595.19;;;17.54;24.25
13478;BME280;12598;62.382;17.344;2023-04-07T03:56:08;102594.44;;;17.52;24.34
13478;BME280;12598;62.382;17.344;2023-04-07T03:57:31;102599.38;;;17.58;24.02
13478;BME280;12598;62.382;17.344;2023-04-07T03:58:32;102598.63;;;17.56;24.20
13478;BME280;12598;62.382;17.344;2023-04-07T03:59:35;102595.19;;;17.54;24.06
13478;BME280;12598;62.382;17.344;2023-04-07T04:00:38;102593.47;;;17.53;24.32
13478;BME280;12598;62.382;17.344;2023-04-07T04:01:43;102595.19;;;17.54;24.05
13478;BME280;12598;62.382;17.344;2023-04-07T04:02:48;102588.53;;;17.47;24.21
13478;BME280;12598;62.382;17.344;2023-04-07T04:03:53;102587.66;;;17.47;24.42
13478;BME280;12598;62.382;17.344;2023-04-07T04:04:58;102598.81;;;17.53;24.39
13478;BME280;12598;62.382;17.344;2023-04-07T04:06:00;102593.00;;;17.47;24.28
13478;BME280;12598;62.382;17.344;2023-04-07T04:07:05;102602.34;;;17.54;24.57
13478;BME280;12598;62.382;17.344;2023-04-07T04:08:17;102601.38;;;17.55;24.33
13478;BME280;12598;62.382;17.344;2023-04-07T04:09:19;102591.75;;;17.52;24.12
13478;BME280;12598;62.382;17.344;2023-04-07T04:10:22;102597.94;;;17.53;24.22
13478;BME280;12598;62.382;17.344;2023-04-07T04:11:27;102596.22;;;17.52;24.32
13478;BME280;12598;62.382;17.344;2023-04-07T04:12:32;102596.22;;;17.52;24.11
13478;BME280;12598;62.382;17.344;2023-04-07T04:13:40;102605.97;;;17.53;23.94
13478;BME280;12598;62.382;17.344;2023-04-07T04:14:42;102603.41;;;17.51;23.97
13478;BME280;12598;62.382;17.344;2023-04-07T04:15:46;102597.50;;;17.46;24.20
13478;BME280;12598;62.382;17.344;2023-04-07T04:16:49;102569.97;;;17.30;24.23
13478;BME280;12598;62.382;17.344;2023-04-07T04:18:05;102613.03;;;17.54;23.96
13478;BME280;12598;62.382;17.344;2023-04-07T04:19:07;102611.44;;;17.51;24.02
13478;BME280;12598;62.382;17.344;2023-04-07T04:20:10;102614.09;;;17.51;24.05
13478;BME280;12598;62.382;17.344;2023-04-07T04:21:17;102595.78;;;17.45;24.25
13478;BME280;12598;62.382;17.344;2023-04-07T04:22:20;102618.59;;;17.51;23.96
13478;BME280;12598;62.382;17.344;2023-04-07T04:23:25;102613.34;;;17.49;23.90
13478;BME280;12598;62.382;17.344;2023-04-07T04:24:29;102612.38;;;17.50;24.30
13478;BME280;12598;62.382;17.344;2023-04-07T04:25:34;102615.06;;;17.50;24.10
13478;BME280;12598;62.382;17.344;2023-04-07T04:26:41;102615.06;;;17.50;23.93
13478;BME280;12598;62.382;17.344;2023-04-07T04:27:46;102614.38;;;17.47;23.99
13478;BME280;12598;62.382;17.344;2023-04-07T04:28:51;102616.03;;;17.49;24.16
13478;BME280;12598;62.382;17.344;2023-04-07T04:29:55;102611.63;;;17.48;23.94
13478;BME280;12598;62.382;17.344;2023-04-07T04:31:07;102604.78;;;17.44;23.76
13478;BME280;12598;62.382;17.344;2023-04-07T04:32:14;102596.84;;;17.43;23.98
13478;BME280;12598;62.382;17.344;2023-04-07T04:33:18;102612.69;;;17.46;23.91
13478;BME280;12598;62.382;17.344;2023-04-07T04:34:28;102612.00;;;17.42;23.94
13478;BME280;12598;62.382;17.344;2023-04-07T04:35:31;102622.41;;;17.47;24.05
13478;BME280;12598;62.382;17.344;2023-04-07T04:36:42;102616.09;;;17.48;23.81
13478;BME280;12598;62.382;17.344;2023-04-07T04:37:45;102618.91;;;17.46;23.97
13478;BME280;12598;62.382;17.344;2023-04-07T04:38:48;102614.50;;;17.45;24.21
13478;BME280;12598;62.382;17.344;2023-04-07T04:39:54;102610.97;;;17.45;24.18
13478;BME280;12598;62.382;17.344;2023-04-07T04:40:57;102622.53;;;17.45;24.12
13478;BME280;12598;62.382;17.344;2023-04-07T04:42:03;102614.38;;;17.47;23.85
13478;BME280;12598;62.382;17.344;2023-04-07T04:43:09;102606.66;;;17.42;23.81
13478;BME280;12598;62.382;17.344;2023-04-07T04:44:13;102610.88;;;17.46;23.89
13478;BME280;12598;62.382;17.344;2023-04-07T04:45:16;102598.94;;;17.38;23.93
13478;BME280;12598;62.382;17.344;2023-04-07T04:46:21;102609.91;;;17.47;23.86
13478;BME280;12598;62.382;17.344;2023-04-07T04:47:23;102611.16;;;17.42;23.94
13478;BME280;12598;62.382;17.344;2023-04-07T04:48:25;102608.19;;;17.46;24.12
13478;BME280;12598;62.382;17.344;2023-04-07T04:49:27;102608.19;;;17.46;23.85
13478;BME280;12598;62.382;17.344;2023-04-07T04:50:34;102609.03;;;17.47;24.08
13478;BME280;12598;62.382;17.344;2023-04-07T04:51:41;102607.25;;;17.47;24.00
13478;BME280;12598;62.382;17.344;2023-04-07T04:52:49;102604.56;;;17.47;23.85
13478;BME280;12598;62.382;17.344;2023-04-07T04:53:56;102608.00;;;17.49;23.73
13478;BME280;12598;62.382;17.344;2023-04-07T04:55:00;102601.78;;;17.49;23.65
13478;BME280;12598;62.382;17.344;2023-04-07T04:56:03;102604.56;;;17.47;23.66
13478;BME280;12598;62.382;17.344;2023-04-07T04:57:24;102602.75;;;17.48;23.91
13478;BME280;12598;62.382;17.344;2023-04-07T04:58:26;102601.91;;;17.47;24.07
13478;BME280;12598;62.382;17.344;2023-04-07T04:59:30;102606.16;;;17.50;23.88
13478;BME280;12598;62.382;17.344;2023-04-07T05:00:37;102607.03;;;17.50;23.63
13478;BME280;12598;62.382;17.344;2023-04-07T05:01:41;102614.19;;;17.50;23.57
13478;BME280;12598;62.382;17.344;2023-04-07T05:02:47;102609.72;;;17.50;23.71
13478;BME280;12598;62.382;17.344;2023-04-07T05:03:50;102609.91;;;17.47;23.53
13478;BME280;12598;62.382;17.344;2023-04-07T05:04:57;102611.63;;;17.48;23.92
13478;BME280;12598;62.382;17.344;2023-04-07T05:06:03;102603.69;;;17.47;23.97
13478;BME280;12598;62.382;17.344;2023-04-07T05:07:05;102615.16;;;17.49;23.80
13478;BME280;12598;62.382;17.344;2023-04-07T05:08:09;102607.31;;;17.46;23.87
13478;BME280;12598;62.382;17.344;2023-04-07T05:09:13;102614.19;;;17.50;23.63
13478;BME280;12598;62.382;17.344;2023-04-07T05:10:18;102603.91;;;17.44;23.51
13478;BME280;12598;62.382;17.344;2023-04-07T05:11:23;102612.38;;;17.50;23.81
13478;BME280;12598;62.382;17.344;2023-04-07T05:12:28;102611.44;;;17.51;23.76
13478;BME280;12598;62.382;17.344;2023-04-07T05:13:34;102615.91;;;17.51;23.77
13478;BME280;12598;62.382;17.344;2023-04-07T05:14:37;102602.66;;;17.49;23.54
13478;BME280;12598;62.382;17.344;2023-04-07T05:15:41;102615.91;;;17.51;23.69
13478;BME280;12598;62.382;17.344;2023-04-07T05:16:46;102618.94;;;17.59;23.76
13478;BME280;12598;62.382;17.344;2023-04-07T05:17:52;102598.81;;;17.53;23.60
13478;BME280;12598;62.382;17.344;2023-04-07T05:18:58;102614.06;;;17.65;23.66
13478;BME280;12598;62.382;17.344;2023-04-07T05:20:01;102615.78;;;17.66;23.30
13478;BME280;12598;62.382;17.344;2023-04-07T05:21:10;102623.59;;;17.69;23.50
13478;BME280;12598;62.382;17.344;2023-04-07T05:22:12;102618.91;;;17.73;23.46
13478;BME280;12598;62.382;17.344;2023-04-07T05:23:19;102622.22;;;17.76;23.38
13478;BME280;12598;62.382;17.344;2023-04-07T05:24:27;102614.19;;;17.76;23.32
13478;BME280;12598;62.382;17.344;2023-04-07T05:25:33;102616.38;;;17.83;23.66
13478;BME280;12598;62.382;17.344;2023-04-07T05:26:38;102605.78;;;17.82;23.00
13478;BME280;12598;62.382;17.344;2023-04-07T05:27:40;102616.09;;;17.88;23.16
13478;BME280;12598;62.382;17.344;2023-04-07T05:28:47;102613.09;;;17.92;23.14
13478;BME280;12598;62.382;17.344;2023-04-07T05:29:53;102624.47;;;17.96;22.96
13478;BME280;12598;62.382;17.344;2023-04-07T05:31:02;102619.66;;;18.01;23.16
13478;BME280;12598;62.382;17.344;2023-04-07T05:32:08;102615.91;;;18.03;23.03
13478;BME280;12598;62.382;17.344;2023-04-07T05:33:10;102609.91;;;18.00;22.78
13478;BME280;12598;62.382;17.344;2023-04-07T05:34:26;102618.06;;;18.11;22.55
13478;BME280;12598;62.382;17.344;2023-04-07T05:35:29;102621.50;;;18.13;22.68
13478;BME280;12598;62.382;17.344;2023-04-07T05:36:34;102617.88;;;18.14;22.63
13478;BME280;12598;62.382;17.344;2023-04-07T05:37:36;102607.38;;;18.11;22.74
13478;BME280;12598;62.382;17.344;2023-04-07T05:38:40;102618.31;;;18.20;22.50
13478;BME280;12598;62.382;17.344;2023-04-07T05:39:47;102625.28;;;18.23;22.78
13478;BME280;12598;62.382;17.344;2023-04-07T05:40:48;102625.19;;;18.24;22.38
13478;BME280;12598;62.382;17.344;2023-04-07T05:41:58;102627.69;;;18.27;22.64